TAL - Ralph M Calhoun Meml

Pirep is a free, collaborative database of all public and private airports located within the United States. All pilots are welcome to contribute, edit, and improve any airport they have local knowledge about, no registration required.
Are you familiar with this airport? Help out other pilots by adding your local knowledge.
Uploaded photos will be licensed under a CC BY-SA 4.0 license. Please only upload photos you have the rights to use.
Tags
Public
Undocu­mented
METAR / TAF
Webcam
Edit Tags
Food
Camping
Lodging
Car Rental
Bicycles
Swimming
Golfing
Fishing
Hot Springs
Museum
Flying Clubs
Airpark
Upcoming Events
No upcoming events. Is anything happening here soon?
*
*
*

Where exactly on/near the airport is this event taking place?

Is there a webpage with more information for this event?

Who should be contacted for more information?

What is this event all about?

Repeat every
Description
Transient Parking
Fuel Location
Landing & Tie-down Fees
Crew Car Availability
Flying Clubs
WiFi Access
Airport Statistics
Location: Tanana, AK
Elevation: 242ft
Sectional: Fairbanks
Activation date: Sep 1947
Fuel: None
Runway 07/25: 4,400ft
Access: Open to the public
Current Weather — VFR
  • Weather data is strictly informational and not for flight planning purposes.
  • METAR
    2024-05-24 16:52:00 AKDT
    Ceiling Wind Temperature Dewpoint Weather Visbility
    6,500ft 120° @ 8kt 55°F 46°F N/A 10SM
    Clouds: Broken @ 6,500ft, Broken @ 10,000ft
    Raw: PATA 250052Z 12008KT 10SM BKN065 BKN100 13/08 A2959 RMK AO2 RAB26E36 SLP024 P0000 T01280078
  • TAF
    2024-05-24 16:00:00 AKDT – 2024-05-25 04:00:00 AKDT
    Ceiling Wind Weather Visbility
    7,000ft 130° @ 5kt Light rain showers, mist 6SM
    Clouds: Scattered @ 5,000ft, Broken @ 7,000ft, Broken @ 10,000ft
    Raw: PATA 242342Z 2500/2524 13005KT 6SM -SHRA BR SCT050 BKN070 BKN100 FM251200 VRB03KT 3SM BR BKN015 BKN070 FM251900 VRB05KT P6SM VCSH SCT040 BKN070
  • TAF
    2024-05-25 04:00:00 AKDT – 2024-05-25 11:00:00 AKDT
    Ceiling Wind Weather Visbility
    1,500ft Variable Mist 3SM
    Clouds: Broken @ 1,500ft, Broken @ 7,000ft
    Raw: PATA 242342Z 2500/2524 13005KT 6SM -SHRA BR SCT050 BKN070 BKN100 FM251200 VRB03KT 3SM BR BKN015 BKN070 FM251900 VRB05KT P6SM VCSH SCT040 BKN070
  • TAF
    2024-05-25 11:00:00 AKDT – 2024-05-25 16:00:00 AKDT
    Ceiling Wind Weather Visbility
    7,000ft Variable Showers in vicinity 6SM
    Clouds: Scattered @ 4,000ft, Broken @ 7,000ft
    Raw: PATA 242342Z 2500/2524 13005KT 6SM -SHRA BR SCT050 BKN070 BKN100 FM251200 VRB03KT 3SM BR BKN015 BKN070 FM251900 VRB05KT P6SM VCSH SCT040 BKN070
Click/tap to add an annotation marker to the map
Direct links to live image URLs will be displayed inline on this page. URLs to separate webpages will be linked to.
URL:
Direct links to live image URLs will be displayed inline on this page. URLs to separate webpages will be linked to.
URL:
Remarks
  • Snow removal operations during winter--monitor ctaf.
  • Ry cond not monitored; recommend visual inspection prior to landing.
  • Floatplane tfc in river adj to arpt.
  • Wx observer avbl for local arpt wx on ctaf (call sign: tanana weather) & phone 907-366-7288 0600-2130.
  • Wx camera avbl on internet at https://weathercams.faa.gov
  • Twy b closed during winter months.
  • Twy b unlit.
  • Twy b reflectors 36 inches tall.
Comments
Leave a comment What was your experience like at this airport?